Data for 06/30/2005

Time Sea-Level Adjusted Pressure Absolute Pressure Temperature Relative Humidity Dew Point   
(mb) (inHg) (mb) (inHg) (C) (F) (%) (C) (F)
00:05 1022 30.18 851 25.13 13.7 56.7 70 8.4 47.1
00:10 1022 30.18 851 25.13 13.6 56.5 70 8.4 47.1
00:15 1022 30.18 851 25.13 13.3 56 72 8.4 47
00:20 1022 30.18 851 25.13 13.1 55.6 72 8.2 46.7
00:25 1022 30.18 851 25.13 13.2 55.7 72 8.3 46.9
00:30 1022 30.18 851 25.13 13.2 55.7 71 8 46.3
00:35 1022 30.18 851 25.13 13.3 56 70 8.1 46.6
00:40 1022 30.18 851 25.13 13.4 56 70 8.1 46.6
00:45 1022 30.18 851 25.13 13.1 55.5 72 8.1 46.6
00:50 1022 30.18 851 25.13 12.3 54.2 76 8.3 47
00:55 1022 30.18 851 25.13 11.9 53.4 78 8.1 46.6
01:00 1022 30.18 851 25.13 11.7 53 77 7.8 46.1
01:05 1022 30.18 851 25.13 11.9 53.5 76 7.8 46.1
01:10 1022 30.18 851 25.13 12 53.6 76 8 46.4
01:15 1022 30.18 851 25.13 11.8 53.2 79 8.3 47
01:20 1022 30.18 851 25.13 11.6 52.9 78 8 46.3
01:25 1022 30.18 851 25.13 11.6 52.9 77 7.8 46
01:30 1022 30.18 851 25.13 11.8 53.2 77 7.9 46.1
01:35 1022 30.18 851 25.13 11.7 53 77 7.7 45.9
01:40 1022 30.18 851 25.13 11.7 53.1 77 7.8 46
01:45 1022 30.18 851 25.13 11.7 53.1 76 7.7 45.9
01:50 1022 30.18 851 25.13 11.7 53.1 76 7.6 45.7
01:55 1022 30.18 851 25.13 11.8 53.3 76 7.7 45.9
02:00 1022 30.18 851 25.13 11.7 53.1 76 7.7 45.9
02:05 1022 30.18 851 25.13 11.6 52.9 77 7.7 45.9
02:10 1022 30.18 851 25.13 11.5 52.6 78 7.7 45.9
02:15 1022 30.18 851 25.13 11.4 52.4 77 7.5 45.6
02:20 1022 30.18 851 25.13 11.3 52.3 77 7.4 45.3
02:25 1022 30.18 851 25.13 11.4 52.5 77 7.5 45.5
02:30 1022 30.18 851 25.13 11.3 52.4 78 7.6 45.7
02:35 1022 30.18 851 25.13 11.3 52.4 78 7.6 45.7
02:40 1022 30.18 851 25.13 10.9 51.7 79 7.5 45.5
02:45 1022 30.18 851 25.13 10.8 51.4 79 7.3 45.2
02:50 1022 30.18 851 25.13 10.8 51.4 80 7.5 45.5
02:55 1022 30.18 851 25.13 10.4 50.7 83 7.6 45.6
03:00 1022 30.18 851 25.13 9.9 49.8 85 7.4 45.4
03:05 1022 30.18 851 25.13 9.8 49.6 84 7.2 45
03:10 1022 30.18 851 25.13 10.1 50.1 82 7.2 44.9
03:15 1022 30.18 851 25.13 10.4 50.6 81 7.3 45.1
03:20 1022 30.18 851 25.13 10.4 50.7 81 7.3 45.1
03:25 1022 30.18 851 25.13 10.3 50.5 83 7.4 45.4
03:30 1022 30.18 851 25.13 10.1 50.3 83 7.5 45.4
03:35 1022 30.18 851 25.13 10.1 50.2 83 7.4 45.3
03:40 1022 30.18 851 25.13 10.2 50.4 83 7.4 45.3
03:45 1022 30.18 851 25.13 10.2 50.3 83 7.3 45.2
03:50 1022 30.18 851 25.13 10.3 50.6 81 7.1 44.8
03:55 1022 30.18 851 25.13 10.7 51.3 79 7.3 45.1
04:00 1022 30.18 851 25.13 10.8 51.4 79 7.4 45.3
04:05 1022 30.18 851 25.13 10.6 51 80 7.2 45
04:10 1022 30.18 851 25.13 10.5 50.9 79 7.1 44.7
04:15 1022 30.18 851 25.13 10.5 50.9 80 7.2 44.9
04:20 1022 30.18 851 25.13 10.2 50.4 81 7.2 44.9
04:25 1022 30.18 851 25.13 10.2 50.3 83 7.3 45.2
04:30 1022 30.18 851 25.13 10.1 50.3 81 7 44.6
04:35 1022 30.18 851 25.13 10.1 50.2 82 7.2 44.9
04:40 1022 30.18 851 25.13 9.8 49.6 83 7.1 44.8
04:45 1022 30.18 851 25.13 9.5 49.1 84 7 44.6
04:50 1022 30.18 851 25.13 9.6 49.3 85 7.2 45
04:55 1022 30.18 851 25.13 9.7 49.5 83 7.1 44.7
05:00 1022 30.18 851 25.13 9.5 49.1 85 7.1 44.7
05:05 1022 30.18 851 25.13 9.4 49 84 6.9 44.5
05:10 1022 30.18 851 25.13 9.6 49.4 84 7.1 44.7
05:15 1022 30.18 851 25.13 9.6 49.3 85 7.2 44.9
05:20 1022 30.18 851 25.13 9.8 49.6 83 7.1 44.7
05:25 1022 30.18 851 25.13 9.8 49.6 83 7.1 44.8
05:30 1022 30.18 851 25.13 9.8 49.7 83 7.2 44.9
05:35 1022 30.18 851 25.13 9.9 49.8 83 7.1 44.8
05:40 1022 30.18 851 25.13 9.8 49.7 83 7.1 44.8
05:45 1022 30.18 851 25.13 9.7 49.4 85 7.3 45.1
05:50 1022 30.18 851 25.13 9.6 49.3 85 7.2 44.9
05:55 1022 30.18 851 25.13 9.7 49.5 84 7.1 44.8
06:00 1022 30.18 851 25.13 10 50 81 7 44.6
06:05 1022 30.18 851 25.13 10.2 50.3 81 7.1 44.8
06:10 1022 30.18 851 25.13 10.3 50.5 81 7.3 45.1
06:15 1022 30.18 851 25.13 10.3 50.5 82 7.4 45.4
06:20 1022 30.18 851 25.13 10.3 50.5 83 7.4 45.4
06:25 1022 30.18 851 25.13 10.2 50.3 83 7.5 45.5
06:30 1022 30.18 851 25.13 9.9 49.9 84 7.4 45.4
06:35 1022 30.18 851 25.13 10 49.9 84 7.3 45.2
06:40 1022 30.18 851 25.13 10.4 50.7 80 7.2 45
06:45 1022 30.18 851 25.13 10.9 51.7 78 7.2 45
06:50 1022 30.18 851 25.13 11.4 52.5 77 7.6 45.7
06:55 1022 30.18 851 25.13 11.7 53 77 7.7 45.9
07:00 1022 30.18 851 25.13 11.6 53 78 7.9 46.2
07:05 1022 30.18 851 25.13 11.7 53.1 77 7.9 46.1
07:10 1022 30.18 851 25.13 11.9 53.3 77 8 46.3
07:15 1022 30.18 851 25.13 11.8 53.2 78 8.1 46.6
07:20 1022 30.18 851 25.13 11.8 53.2 78 8.2 46.7
07:25 1022 30.18 851 25.13 12.1 53.7 76 8 46.4
07:30 1022 30.18 851 25.13 12.5 54.4 75 8.2 46.8
07:35 1022 30.18 851 25.13 13.3 55.9 70 8 46.5
07:40 1022 30.18 851 25.13 14 57.1 68 8.2 46.7
07:45 1022 30.18 851 25.13 14.1 57.3 68 8.3 47
07:50 1022 30.18 851 25.13 14.1 57.4 67 8.2 46.7
07:55 1022 30.18 851 25.13 14.2 57.5 68 8.5 47.2
08:00 1022 30.18 851 25.13 14.5 58.1 66 8.4 47
08:05 1022 30.18 851 25.13 15.4 59.7 63 8.4 47
08:10 1022 30.18 851 25.13 16.2 61.1 60 8.5 47.3
08:15 1022 30.18 851 25.13 16 60.8 57 7.6 45.7
08:20 1022 30.18 851 25.13 16.3 61.4 57 7.8 46
08:25 1022 30.18 851 25.13 16.3 61.3 57 7.8 46.1
08:30 1022 30.18 851 25.13 16 60.7 58 7.9 46.2
08:35 1022 30.18 851 25.13 16.1 61 58 7.8 46.1
08:40 1022 30.18 851 25.13 16.7 62 55 7.7 45.9
08:45 1022 30.18 851 25.13 17.3 63.1 53 7.8 46.1
08:50 1022 30.18 851 25.13 17.4 63.3 53 7.7 45.9
08:55 1022 30.18 851 25.13 17.2 62.9 55 8.1 46.6
09:00 1022 30.18 851 25.13 17.4 63.4 53 7.8 46
09:05 1022 30.18 851 25.13 17.7 63.9 52 7.8 46.1
09:10 1022 30.18 851 25.13 17.9 64.2 52 8 46.4
09:15 1022 30.18 851 25.13 18 64.3 51 7.7 45.9
09:20 1022 30.18 851 25.13 18.1 64.5 53 8.5 47.3
09:25 1022 30.18 851 25.13 17.3 63.1 54 7.9 46.1
09:30 1022 30.18 851 25.13 17.7 63.8 52 7.8 46
09:35 1022 30.18 851 25.13 18.8 65.8 48 7.8 46.1
09:40 1022 30.18 851 25.13 18.5 65.2 50 8.1 46.5
09:45 1022 30.18 851 25.13 18.2 64.7 50 7.8 46
09:50 1022 30.18 851 25.13 18.9 66.1 48 7.7 45.8
09:55 1022 30.18 851 25.13 19.5 67.1 47 7.9 46.3
10:00 1022 30.18 851 25.13 18.9 66.1 47 7.4 45.4
10:05 1022 30.18 851 25.13 19.4 66.9 45 7.3 45.2
10:10 1022 30.18 851 25.13 19.7 67.5 47 8.2 46.7
10:15 1022 30.18 851 25.13 19.2 66.5 50 8.6 47.5
10:20 1022 30.18 851 25.13 18.1 64.6 53 8.5 47.3
10:25 1022 30.18 851 25.13 18.2 64.8 50 7.9 46.2
10:30 1022 30.18 851 25.13 19.2 66.6 45 7 44.7
10:35 1022 30.18 851 25.13 19.5 67 46 7.5 45.6
10:40 1022 30.18 851 25.13 19.3 66.7 47 7.7 45.8
10:45 1022 30.18 851 25.13 19.6 67.3 45 7.6 45.7
10:50 1022 30.18 851 25.13 19.1 66.4 47 7.6 45.7
10:55 1022 30.18 851 25.13 20.1 68.1 43 7.2 45
11:00 1022 30.18 851 25.13 20.3 68.5 43 7.6 45.7
11:05 1022 30.18 851 25.13 20.1 68.2 44 7.5 45.5
11:10 1022 30.18 851 25.13 20.8 69.4 38 6.2 43.1
11:15 1022 30.18 851 25.13 20.8 69.5 38 6.2 43.1
11:20 1022 30.18 851 25.13 21 69.7 36 5.6 42.1
11:25 1022 30.18 851 25.13 21.2 70.1 37 6 42.8
11:30 1022 30.18 851 25.13 21.3 70.3 35 5.3 41.6
11:35 1022 30.18 851 25.13 21.2 70.2 36 5.6 42.2
11:40 1021 30.15 851 25.13 21.1 70 38 6.3 43.3
11:45 1021 30.15 851 25.13 20.8 69.4 38 6.2 43.2
11:50 1021 30.15 851 25.13 20.6 69 34 4.5 40
11:55 1021 30.15 851 25.13 20.9 69.6 33 4 39.2
12:00 1021 30.15 851 25.13 21.3 70.3 35 5.3 41.6
12:05 1021 30.15 851 25.13 21.2 70.2 29 2.5 36.5
12:10 1021 30.15 851 25.13 21.1 70.1 31 3.5 38.4
12:15 1021 30.15 850 25.1 21.6 70.9 29 3.2 37.7
12:20 1021 30.15 850 25.1 21.4 70.5 29 3 37.4
12:25 1021 30.15 850 25.1 21.8 71.3 33 4.8 40.7
12:30 1021 30.15 850 25.1 22 71.6 33 5 41
12:35 1021 30.15 850 25.1 21.1 69.9 33 4.3 39.7
12:40 1021 30.15 850 25.1 20.6 69.2 34 4.4 39.9
12:45 1021 30.15 850 25.1 21.1 70.1 34 4.7 40.5
12:50 1021 30.15 850 25.1 21.5 70.6 34 5.2 41.3
12:55 1021 30.15 850 25.1 22 71.5 33 5.3 41.6
13:00 1021 30.15 850 25.1 21.5 70.8 35 5.6 42.1
13:05 1021 30.15 850 25.1 22 71.6 35 5.8 42.5
13:10 1021 30.15 850 25.1 22.5 72.5 33 5.7 42.2
13:15 1021 30.15 850 25.1 21.9 71.5 35 5.8 42.4
13:20 1021 30.15 850 25.1 21.8 71.2 33 5.1 41.3
13:25 1021 30.15 850 25.1 21.4 70.4 35 5.4 41.7
13:30 1021 30.15 850 25.1 21.7 71 35 5.5 42
13:35 1021 30.15 850 25.1 22.1 71.7 33 5.3 41.5
13:40 1021 30.15 850 25.1 21.4 70.5 35 5.5 41.9
13:45 1021 30.15 850 25.1 21.6 70.9 33 5 41
13:50 1021 30.15 850 25.1 22.4 72.4 31 4.7 40.4
13:55 1021 30.15 850 25.1 22.4 72.3 31 4.8 40.7
14:00 1021 30.15 850 25.1 22.5 72.4 32 5.1 41.1
14:05 1021 30.15 850 25.1 22 71.5 34 5.5 41.9
14:10 1021 30.15 850 25.1 22.1 71.7 32 5 40.9
14:15 1021 30.15 850 25.1 22.2 71.9 32 5 41.1
14:20 1021 30.15 850 25.1 22.7 72.8 33 5.7 42.3
14:25 1021 30.15 850 25.1 23 73.4 32 5.6 42
14:30 1020 30.12 850 25.1 22.6 72.6 33 5.7 42.3
14:35 1020 30.12 850 25.1 22.4 72.4 32 5.3 41.6
14:40 1020 30.12 850 25.1 22.9 73.2 32 5.6 42.1
14:45 1020 30.12 850 25.1 23.5 74.3 30 5.4 41.7
14:50 1020 30.12 850 25.1 24 75.3 31 6.1 43
14:55 1020 30.12 850 25.1 23.7 74.7 30 5.2 41.4
15:00 1020 30.12 850 25.1 23.5 74.2 30 5.1 41.2
15:05 1020 30.12 850 25.1 24 75.3 29 5.3 41.6
15:10 1020 30.12 849 25.07 24.1 75.4 29 5.4 41.6
15:15 1020 30.12 849 25.07 24.1 75.4 29 5.3 41.5
15:20 1020 30.12 849 25.07 24.1 75.3 30 5.5 41.8
15:25 1020 30.12 849 25.07 24.5 76.1 29 5.6 42.2
15:30 1020 30.12 849 25.07 24.4 75.9 30 6.1 43
15:35 1020 30.12 849 25.07 23.3 73.9 32 5.7 42.3
15:40 1020 30.12 849 25.07 23.6 74.5 30 5.3 41.6
15:45 1020 30.12 849 25.07 23.9 75 30 5.5 41.9
15:50 1020 30.12 849 25.07 23.9 75.1 31 6.1 42.9
15:55 1020 30.12 849 25.07 23.2 73.8 32 5.6 42.1
16:00 1020 30.12 849 25.07 23.3 73.9 31 5.3 41.6
16:05 1020 30.12 849 25.07 23.3 74 31 5.5 41.8
16:10 1020 30.12 849 25.07 24 75.1 29 5.3 41.5
16:15 1020 30.12 849 25.07 24 75.1 31 6.2 43.1
16:20 1020 30.12 849 25.07 23.7 74.7 31 5.9 42.5
16:25 1020 30.12 849 25.07 24.1 75.4 30 5.7 42.3
16:30 1020 30.12 849 25.07 24.1 75.3 31 6 42.7
16:35 1020 30.12 849 25.07 23.7 74.7 30 5.4 41.8
16:40 1020 30.12 849 25.07 23.3 73.9 31 5.5 41.9
16:45 1020 30.12 849 25.07 23.5 74.2 31 5.6 42.1
16:50 1020 30.12 849 25.07 24 75.3 29 5.1 41.1
16:55 1020 30.12 849 25.07 23.6 74.5 31 5.7 42.2
17:00 1020 30.12 849 25.07 23.1 73.6 31 5.3 41.6
17:05 1020 30.12 849 25.07 23.5 74.3 31 5.4 41.8
17:10 1020 30.12 849 25.07 23.4 74 30 5.2 41.4
17:15 1020 30.12 849 25.07 23.6 74.5 30 5.3 41.5
17:20 1020 30.12 849 25.07 24.4 75.9 28 5.1 41.2
17:25 1020 30.12 849 25.07 25.1 77.1 27 5 41
17:30 1020 30.12 849 25.07 24.6 76.2 28 5.2 41.4
17:35 1020 30.12 849 25.07 24.9 76.8 27 5.1 41.1
17:40 1020 30.12 849 25.07 25.3 77.5 28 5.6 42.1
17:45 1019 30.09 849 25.07 24.5 76 28 5.2 41.3
17:50 1019 30.09 849 25.07 24.4 75.9 29 5.6 42
17:55 1019 30.09 849 25.07 24.8 76.6 28 5.4 41.8
18:00 1019 30.09 848 25.04 24.7 76.5 28 5.3 41.6
18:05 1019 30.09 848 25.04 24.4 76 29 5.5 41.9
18:10 1019 30.09 848 25.04 24.5 76.1 28 4.9 40.9
18:15 1019 30.09 848 25.04 24.7 76.5 28 5.2 41.3
18:20 1019 30.09 848 25.04 24.9 76.8 27 5 41
18:25 1019 30.09 848 25.04 25.3 77.6 26 4.9 40.8
18:30 1019 30.09 848 25.04 24.8 76.7 27 5.1 41.1
18:35 1019 30.09 848 25.04 24.4 75.9 29 5.2 41.4
18:40 1019 30.09 848 25.04 24.7 76.4 27 4.9 40.9
18:45 1019 30.09 848 25.04 24.8 76.6 29 5.6 42
18:50 1019 30.09 848 25.04 24.9 76.8 27 5 41
18:55 1019 30.09 848 25.04 24.7 76.5 28 5 41.1
19:00 1019 30.09 848 25.04 25.1 77.2 27 4.9 40.8
19:05 1019 30.09 848 25.04 25.1 77.3 27 5.3 41.5
19:10 1019 30.09 848 25.04 24.4 76 29 5.4 41.7
19:15 1019 30.09 848 25.04 24 75.2 29 5.3 41.5
19:20 1019 30.09 848 25.04 24.5 76 28 5.1 41.2
19:25 1019 30.09 848 25.04 24.4 75.8 29 5.3 41.5
19:30 1019 30.09 848 25.04 23.8 74.9 30 5.5 41.9
19:35 1019 30.09 848 25.04 23.5 74.3 31 5.6 42
19:40 1019 30.09 848 25.04 23.2 73.7 31 5.2 41.3
19:45 1019 30.09 848 25.04 23.4 74 30 4.9 40.8
19:50 1019 30.09 848 25.04 23.9 75.1 30 5.5 41.9
19:55 1019 30.09 848 25.04 23.6 74.5 30 5.4 41.7
20:00 1019 30.09 848 25.04 23 73.5 31 5.4 41.6
20:05 1019 30.09 848 25.04 22.8 73 32 5.4 41.6
20:10 1019 30.09 848 25.04 22.6 72.7 32 5.5 41.9
20:15 1019 30.09 848 25.04 22.5 72.6 32 5.4 41.7
20:20 1019 30.09 848 25.04 22.5 72.4 33 5.4 41.7
20:25 1019 30.09 848 25.04 22.3 72.2 32 4.9 40.8
20:30 1019 30.09 848 25.04 22.2 71.9 33 5.5 42
20:35 1019 30.09 848 25.04 21.9 71.4 34 5.7 42.2
20:40 1019 30.09 848 25.04 21.7 71 36 6.1 43
20:45 1019 30.09 848 25.04 21.4 70.6 39 7 44.6
20:50 1019 30.09 848 25.04 21.3 70.4 40 7.3 45.1
20:55 1019 30.09 848 25.04 21.3 70.3 39 6.9 44.5
21:00 1019 30.09 848 25.04 21.3 70.3 46 9.4 49
21:05 1019 30.09 848 25.04 21.1 69.9 42 7.7 45.8
21:10 1019 30.09 848 25.04 20.7 69.3 47 9.2 48.6
21:15 1019 30.09 848 25.04 20.3 68.6 49 9.4 49
21:20 1019 30.09 848 25.04 19.6 67.4 58 11.2 52.2
21:25 1019 30.09 848 25.04 19 66.1 55 10 50
21:30 1019 30.09 848 25.04 18.4 65.2 55 9.2 48.6
21:35 1019 30.09 848 25.04 18.3 65 56 9.6 49.2
21:40 1019 30.09 848 25.04 18.2 64.8 55 9.1 48.4
21:45 1019 30.09 848 25.04 17.8 64 59 9.7 49.5
21:50 1019 30.09 848 25.04 17.4 63.2 61 9.8 49.7
21:55 1019 30.09 848 25.04 16.9 62.5 61 9.5 49.1
22:00 1019 30.09 848 25.04 16.7 62 60 9 48.2
22:05 1019 30.09 848 25.04 16.6 61.9 61 9.2 48.6
22:10 1019 30.09 848 25.04 16.5 61.6 61 8.9 48
22:15 1019 30.09 848 25.04 16.3 61.3 63 9.4 48.8
22:20 1019 30.09 848 25.04 16 60.9 65 9.5 49.1
22:25 1019 30.09 848 25.04 15.9 60.6 62 8.7 47.6
22:30 1019 30.09 848 25.04 15.8 60.5 61 8.3 46.9
22:35 1019 30.09 848 25.04 16 60.9 61 8.5 47.3
22:40 1019 30.09 848 25.04 16.1 60.9 59 8.2 46.7
22:45 1019 30.09 848 25.04 16.2 61.1 61 8.8 47.8
22:50 1019 30.09 848 25.04 16.3 61.3 57 7.9 46.2
22:55 1019 30.09 848 25.04 16.6 61.9 54 7.5 45.4
23:00 1019 30.09 848 25.04 16.7 62 55 7.6 45.7
23:05 1019 30.09 848 25.04 16.5 61.6 56 7.8 46.1
23:10 1019 30.09 848 25.04 16.2 61.1 57 7.7 45.8
23:15 1019 30.09 848 25.04 15.8 60.5 59 7.9 46.2
23:20 1019 30.09 848 25.04 15.4 59.7 61 8 46.4
23:25 1019 30.09 848 25.04 15.1 59.2 62 7.9 46.3
23:30 1019 30.09 848 25.04 15.1 59.3 62 7.9 46.3
23:35 1019 30.09 848 25.04 15.1 59.3 63 8.1 46.7
23:40 1019 30.09 848 25.04 15.1 59.2 61 7.7 45.9
23:45 1019 30.09 848 25.04 14.9 58.7 60 7.3 45.2
23:50 1019 30.09 848 25.04 15 59 60 7.5 45.4
23:55 1019 30.09 848 25.04 15.1 59.1 59 7.1 44.9
24:00 1019 30.09 848 25.04 15.1 59.2 58 7 44.5